PGT77CC LTDB-LTFE
Flight info
| Callsign | PGT77CC |
|---|---|
| Flight time | 1h 4m |
| Altitude | 36000 |
| Route | MANAZ UW74 MUT UR55 AYT UW89 KAVAK |
| Aircraft | A20N/M-SDE2E3FGHIRWXY/LB1 |
Departure
| Time | 2026-05-04 19:54 |
|---|---|
| Airport | Çukurova International Airport (LTDB) |
Arrival
| Time | 2026-05-04 20:59 |
|---|---|
| Airport | Milas Bodrum International Airport (LTFE) |
| Time | Latitude | Longitude | Altitude | Speed | Heading |
|---|---|---|---|---|---|
| 2026-05-04 19:05 | 36.90153 | 35.07006 | 30 ft | 0 kts | 302° |
| 2026-05-04 19:40 | 36.90147 | 35.07016 | 30 ft | 2 kts | 303° |
| 2026-05-04 19:41 | 36.90139 | 35.07031 | 30 ft | 2 kts | 303° |
| 2026-05-04 19:41 | 36.90131 | 35.07046 | 30 ft | 2 kts | 303° |
| 2026-05-04 19:41 | 36.90121 | 35.07061 | 30 ft | 2 kts | 333° |
| 2026-05-04 19:41 | 36.90106 | 35.07066 | 30 ft | 2 kts | 1° |
| 2026-05-04 19:42 | 36.90093 | 35.07062 | 30 ft | 0 kts | 27° |
| 2026-05-04 19:42 | 36.90087 | 35.07058 | 30 ft | 1 kts | 33° |
| 2026-05-04 19:42 | 36.90086 | 35.07057 | 30 ft | 0 kts | 32° |
| 2026-05-04 19:46 | 36.90087 | 35.07058 | 30 ft | 0 kts | 32° |
| 2026-05-04 19:46 | 36.90090 | 35.07059 | 30 ft | 0 kts | 32° |
| 2026-05-04 19:46 | 36.90098 | 35.07066 | 30 ft | 1 kts | 32° |
| 2026-05-04 19:47 | 36.90113 | 35.07078 | 30 ft | 2 kts | 32° |
| 2026-05-04 19:47 | 36.90133 | 35.07094 | 30 ft | 3 kts | 33° |
| 2026-05-04 19:47 | 36.90160 | 35.07114 | 30 ft | 4 kts | 31° |
| 2026-05-04 19:47 | 36.90192 | 35.07139 | 30 ft | 5 kts | 31° |
| 2026-05-04 19:48 | 36.90229 | 35.07167 | 30 ft | 6 kts | 31° |
| 2026-05-04 19:48 | 36.90270 | 35.07203 | 31 ft | 7 kts | 52° |
| 2026-05-04 19:48 | 36.90268 | 35.07267 | 31 ft | 8 kts | 115° |
| 2026-05-04 19:48 | 36.90235 | 35.07333 | 30 ft | 9 kts | 123° |
| 2026-05-04 19:49 | 36.90199 | 35.07408 | 30 ft | 10 kts | 118° |
| 2026-05-04 19:49 | 36.90165 | 35.07481 | 30 ft | 7 kts | 120° |
| 2026-05-04 19:49 | 36.90138 | 35.07539 | 30 ft | 8 kts | 120° |
| 2026-05-04 19:49 | 36.90128 | 35.07580 | 30 ft | 1 kts | 83° |
| 2026-05-04 19:50 | 36.90137 | 35.07596 | 30 ft | 3 kts | 46° |
| 2026-05-04 19:50 | 36.90173 | 35.07621 | 30 ft | 7 kts | 26° |
| 2026-05-04 19:50 | 36.90230 | 35.07662 | 31 ft | 10 kts | 33° |
| 2026-05-04 19:50 | 36.90290 | 35.07707 | 31 ft | 10 kts | 31° |
| 2026-05-04 19:51 | 36.90355 | 35.07757 | 32 ft | 11 kts | 32° |
| 2026-05-04 19:51 | 36.90422 | 35.07809 | 32 ft | 11 kts | 29° |
| 2026-05-04 19:51 | 36.90494 | 35.07862 | 32 ft | 12 kts | 32° |
| 2026-05-04 19:51 | 36.90565 | 35.07916 | 33 ft | 7 kts | 32° |
| 2026-05-04 19:52 | 36.90598 | 35.07962 | 33 ft | 7 kts | 86° |
| 2026-05-04 19:52 | 36.90573 | 35.08026 | 33 ft | 8 kts | 122° |
| 2026-05-04 19:52 | 36.90538 | 35.08098 | 33 ft | 10 kts | 121° |
| 2026-05-04 19:52 | 36.90509 | 35.08142 | 33 ft | 5 kts | 172° |
| 2026-05-04 19:53 | 36.90481 | 35.08130 | 33 ft | 0 kts | 210° |
| 2026-05-04 19:53 | 36.90480 | 35.08129 | 33 ft | 3 kts | 211° |
| 2026-05-04 19:54 | 36.90281 | 35.07976 | 32 ft | 72 kts | 210° |
| 2026-05-04 19:54 | 36.89650 | 35.07497 | 29 ft | 138 kts | 211° |
| 2026-05-04 19:54 | 36.88741 | 35.06795 | 349 ft | 158 kts | 210° |
| 2026-05-04 19:54 | 36.87801 | 35.06074 | 962 ft | 161 kts | 210° |
| 2026-05-04 19:55 | 36.86820 | 35.05333 | 1427 ft | 176 kts | 210° |
| 2026-05-04 19:55 | 36.85705 | 35.04492 | 1878 ft | 195 kts | 210° |
| 2026-05-04 19:55 | 36.84498 | 35.03581 | 2381 ft | 212 kts | 210° |
| 2026-05-04 19:55 | 36.83170 | 35.02573 | 2814 ft | 234 kts | 211° |
| 2026-05-04 19:56 | 36.81823 | 35.01456 | 3721 ft | 235 kts | 223° |
| 2026-05-04 19:56 | 36.81008 | 34.99733 | 4521 ft | 243 kts | 259° |
| 2026-05-04 19:56 | 36.81128 | 34.97569 | 5107 ft | 260 kts | 284° |
| 2026-05-04 19:56 | 36.81612 | 34.95347 | 5694 ft | 276 kts | 283° |
| 2026-05-04 19:57 | 36.82089 | 34.93007 | 6481 ft | 282 kts | 282° |
| 2026-05-04 19:57 | 36.82544 | 34.90664 | 7417 ft | 281 kts | 282° |
| 2026-05-04 19:57 | 36.82992 | 34.88295 | 8340 ft | 282 kts | 281° |
| 2026-05-04 19:57 | 36.83432 | 34.85931 | 9253 ft | 282 kts | 281° |
| 2026-05-04 19:58 | 36.83865 | 34.83577 | 10122 ft | 283 kts | 281° |
| 2026-05-04 19:58 | 36.84307 | 34.81152 | 10744 ft | 293 kts | 281° |
| 2026-05-04 19:58 | 36.84765 | 34.78623 | 11156 ft | 310 kts | 281° |
| 2026-05-04 19:58 | 36.85249 | 34.75948 | 11627 ft | 323 kts | 281° |
| 2026-05-04 19:59 | 36.85752 | 34.73175 | 12269 ft | 330 kts | 281° |
| 2026-05-04 19:59 | 36.86254 | 34.70409 | 13013 ft | 332 kts | 282° |
| 2026-05-04 19:59 | 36.86763 | 34.67612 | 13793 ft | 334 kts | 281° |
| 2026-05-04 19:59 | 36.87275 | 34.64775 | 14671 ft | 335 kts | 281° |
| 2026-05-04 20:00 | 36.87782 | 34.61956 | 15455 ft | 337 kts | 280° |
| 2026-05-04 20:00 | 36.88296 | 34.59082 | 16130 ft | 340 kts | 281° |
| 2026-05-04 20:00 | 36.88808 | 34.56206 | 16776 ft | 344 kts | 280° |
| 2026-05-04 20:00 | 36.89325 | 34.53297 | 17437 ft | 347 kts | 280° |
| 2026-05-04 20:01 | 36.89854 | 34.50344 | 18088 ft | 351 kts | 280° |
| 2026-05-04 20:01 | 36.90386 | 34.47360 | 18725 ft | 355 kts | 281° |
| 2026-05-04 20:01 | 36.90908 | 34.44340 | 19328 ft | 359 kts | 278° |
| 2026-05-04 20:01 | 36.91251 | 34.41254 | 19921 ft | 361 kts | 273° |
| 2026-05-04 20:02 | 36.91350 | 34.38155 | 20525 ft | 364 kts | 267° |
| 2026-05-04 20:02 | 36.91255 | 34.34950 | 21109 ft | 367 kts | 265° |
| 2026-05-04 20:02 | 36.91120 | 34.31782 | 21650 ft | 371 kts | 264° |
| 2026-05-04 20:02 | 36.90977 | 34.28544 | 22223 ft | 375 kts | 264° |
| 2026-05-04 20:03 | 36.90833 | 34.25279 | 22781 ft | 379 kts | 264° |
| 2026-05-04 20:03 | 36.90686 | 34.21963 | 23297 ft | 383 kts | 264° |
| 2026-05-04 20:03 | 36.90540 | 34.18621 | 23856 ft | 386 kts | 264° |
| 2026-05-04 20:03 | 36.90393 | 34.15299 | 24345 ft | 389 kts | 264° |
| 2026-05-04 20:04 | 36.90243 | 34.11919 | 24866 ft | 391 kts | 265° |
| 2026-05-04 20:04 | 36.90091 | 34.08508 | 25328 ft | 394 kts | 265° |
| 2026-05-04 20:04 | 36.89940 | 34.05123 | 25802 ft | 395 kts | 265° |
| 2026-05-04 20:04 | 36.89787 | 34.01705 | 26275 ft | 396 kts | 265° |
| 2026-05-04 20:05 | 36.89631 | 33.98283 | 26639 ft | 398 kts | 266° |
| 2026-05-04 20:05 | 36.89474 | 33.94814 | 26982 ft | 400 kts | 266° |
| 2026-05-04 20:05 | 36.89317 | 33.91356 | 27335 ft | 402 kts | 266° |
| 2026-05-04 20:05 | 36.89161 | 33.87922 | 27727 ft | 402 kts | 266° |
| 2026-05-04 20:06 | 36.89000 | 33.84430 | 28128 ft | 402 kts | 266° |
| 2026-05-04 20:06 | 36.88837 | 33.80931 | 28482 ft | 403 kts | 267° |
| 2026-05-04 20:06 | 36.88674 | 33.77438 | 28811 ft | 404 kts | 267° |
| 2026-05-04 20:06 | 36.88512 | 33.73985 | 29112 ft | 406 kts | 268° |
| 2026-05-04 20:07 | 36.88347 | 33.70449 | 29435 ft | 406 kts | 268° |
| 2026-05-04 20:07 | 36.88179 | 33.66929 | 29820 ft | 406 kts | 268° |
| 2026-05-04 20:07 | 36.88015 | 33.63469 | 30236 ft | 404 kts | 268° |
| 2026-05-04 20:07 | 36.87852 | 33.59990 | 30639 ft | 402 kts | 268° |
| 2026-05-04 20:08 | 36.87687 | 33.56527 | 30974 ft | 402 kts | 268° |
| 2026-05-04 20:08 | 36.87517 | 33.53019 | 31314 ft | 402 kts | 268° |
| 2026-05-04 20:08 | 36.87347 | 33.49562 | 31648 ft | 401 kts | 268° |
| 2026-05-04 20:08 | 36.87177 | 33.46109 | 31969 ft | 401 kts | 268° |
| 2026-05-04 20:09 | 36.87004 | 33.42649 | 32263 ft | 401 kts | 268° |
| 2026-05-04 20:09 | 36.86832 | 33.39203 | 32561 ft | 401 kts | 267° |
| 2026-05-04 20:09 | 36.86659 | 33.35750 | 32838 ft | 401 kts | 267° |
| 2026-05-04 20:09 | 36.86481 | 33.32250 | 33131 ft | 400 kts | 267° |
| 2026-05-04 20:10 | 36.86396 | 33.28798 | 33403 ft | 400 kts | 270° |
| 2026-05-04 20:10 | 36.86459 | 33.25339 | 33679 ft | 401 kts | 272° |
| 2026-05-04 20:10 | 36.86572 | 33.21885 | 33960 ft | 401 kts | 272° |
| 2026-05-04 20:10 | 36.86687 | 33.18391 | 34220 ft | 401 kts | 272° |
| 2026-05-04 20:11 | 36.86800 | 33.14962 | 34423 ft | 403 kts | 272° |
| 2026-05-04 20:11 | 36.86914 | 33.11468 | 34632 ft | 404 kts | 272° |
| 2026-05-04 20:11 | 36.87029 | 33.07927 | 34844 ft | 406 kts | 272° |
| 2026-05-04 20:11 | 36.87141 | 33.04420 | 35050 ft | 407 kts | 272° |
| 2026-05-04 20:12 | 36.87251 | 33.00912 | 35258 ft | 407 kts | 272° |
| 2026-05-04 20:12 | 36.87361 | 32.97398 | 35480 ft | 407 kts | 272° |
| 2026-05-04 20:12 | 36.87471 | 32.93852 | 35670 ft | 408 kts | 272° |
| 2026-05-04 20:12 | 36.87580 | 32.90311 | 35773 ft | 410 kts | 272° |
| 2026-05-04 20:13 | 36.87688 | 32.86777 | 35778 ft | 410 kts | 272° |
| 2026-05-04 20:13 | 36.87899 | 32.79688 | 35792 ft | 410 kts | 272° |
| 2026-05-04 20:14 | 36.88106 | 32.72639 | 35797 ft | 409 kts | 272° |
| 2026-05-04 20:14 | 36.88310 | 32.65512 | 35807 ft | 411 kts | 272° |
| 2026-05-04 20:15 | 36.88510 | 32.58409 | 35795 ft | 411 kts | 272° |
| 2026-05-04 20:15 | 36.88701 | 32.51293 | 35792 ft | 412 kts | 272° |
| 2026-05-04 20:16 | 36.88896 | 32.44180 | 35794 ft | 412 kts | 273° |
| 2026-05-04 20:16 | 36.89090 | 32.37082 | 35811 ft | 412 kts | 273° |
| 2026-05-04 20:17 | 36.89281 | 32.29946 | 35829 ft | 413 kts | 272° |
| 2026-05-04 20:17 | 36.89467 | 32.22768 | 35856 ft | 413 kts | 272° |
| 2026-05-04 20:18 | 36.89645 | 32.15629 | 35853 ft | 411 kts | 272° |
| 2026-05-04 20:18 | 36.89818 | 32.08521 | 35843 ft | 412 kts | 272° |
| 2026-05-04 20:19 | 36.89986 | 32.01408 | 35832 ft | 413 kts | 272° |
| 2026-05-04 20:19 | 36.90151 | 31.94272 | 35834 ft | 412 kts | 272° |
| 2026-05-04 20:20 | 36.90299 | 31.87132 | 35862 ft | 412 kts | 272° |
| 2026-05-04 20:20 | 36.90440 | 31.80008 | 35884 ft | 411 kts | 272° |
| 2026-05-04 20:21 | 36.90489 | 31.72874 | 35897 ft | 412 kts | 270° |
| 2026-05-04 20:21 | 36.90160 | 31.62171 | 35877 ft | 412 kts | 270° |
| 2026-05-04 20:22 | 36.89930 | 31.55009 | 35872 ft | 412 kts | 270° |
| 2026-05-04 20:22 | 36.89697 | 31.47867 | 35861 ft | 413 kts | 270° |
| 2026-05-04 20:23 | 36.89565 | 31.40717 | 35859 ft | 413 kts | 274° |
| 2026-05-04 20:23 | 36.89849 | 31.33557 | 35847 ft | 412 kts | 275° |
| 2026-05-04 20:24 | 36.90162 | 31.26445 | 35851 ft | 412 kts | 275° |
| 2026-05-04 20:24 | 36.90469 | 31.19334 | 35835 ft | 411 kts | 275° |
| 2026-05-04 20:25 | 36.90771 | 31.12239 | 35835 ft | 410 kts | 275° |
| 2026-05-04 20:25 | 36.91069 | 31.05107 | 35833 ft | 411 kts | 275° |
| 2026-05-04 20:26 | 36.91360 | 30.98004 | 35841 ft | 410 kts | 275° |
| 2026-05-04 20:26 | 36.91647 | 30.90919 | 35841 ft | 410 kts | 275° |
| 2026-05-04 20:27 | 36.91980 | 30.83850 | 35853 ft | 410 kts | 278° |
| 2026-05-04 20:27 | 36.92815 | 30.76840 | 35867 ft | 409 kts | 283° |
| 2026-05-04 20:28 | 36.94205 | 30.69969 | 35871 ft | 409 kts | 287° |
| 2026-05-04 20:28 | 36.95709 | 30.63158 | 35885 ft | 409 kts | 287° |
| 2026-05-04 20:29 | 36.97218 | 30.56317 | 35898 ft | 408 kts | 287° |
| 2026-05-04 20:29 | 36.98719 | 30.49487 | 35909 ft | 409 kts | 287° |
| 2026-05-04 20:30 | 37.00219 | 30.42645 | 35920 ft | 409 kts | 287° |
| 2026-05-04 20:30 | 37.01710 | 30.35813 | 35924 ft | 409 kts | 287° |
| 2026-05-04 20:31 | 37.03201 | 30.28962 | 35934 ft | 410 kts | 287° |
| 2026-05-04 20:31 | 37.04695 | 30.22086 | 35933 ft | 409 kts | 287° |
| 2026-05-04 20:32 | 37.05429 | 30.18690 | 35802 ft | 410 kts | 287° |
| 2026-05-04 20:32 | 37.06175 | 30.15241 | 35581 ft | 408 kts | 287° |
| 2026-05-04 20:32 | 37.06907 | 30.11846 | 35285 ft | 407 kts | 287° |
| 2026-05-04 20:32 | 37.07644 | 30.08422 | 34864 ft | 405 kts | 288° |
| 2026-05-04 20:33 | 37.08367 | 30.05052 | 34327 ft | 406 kts | 288° |
| 2026-05-04 20:33 | 37.09098 | 30.01643 | 33729 ft | 408 kts | 288° |
| 2026-05-04 20:33 | 37.09833 | 29.98210 | 33151 ft | 412 kts | 288° |
| 2026-05-04 20:33 | 37.10579 | 29.94730 | 32522 ft | 417 kts | 289° |
| 2026-05-04 20:34 | 37.11331 | 29.91218 | 31853 ft | 424 kts | 289° |
| 2026-05-04 20:34 | 37.12100 | 29.87621 | 31014 ft | 433 kts | 289° |
| 2026-05-04 20:34 | 37.12875 | 29.83989 | 30194 ft | 437 kts | 289° |
| 2026-05-04 20:34 | 37.13658 | 29.80318 | 29381 ft | 438 kts | 289° |
| 2026-05-04 20:35 | 37.14430 | 29.76682 | 28790 ft | 434 kts | 289° |
| 2026-05-04 20:35 | 37.15196 | 29.73055 | 28312 ft | 428 kts | 289° |
| 2026-05-04 20:35 | 37.15946 | 29.69489 | 27811 ft | 422 kts | 289° |
| 2026-05-04 20:35 | 37.16694 | 29.65943 | 27322 ft | 416 kts | 289° |
| 2026-05-04 20:36 | 37.17427 | 29.62456 | 26832 ft | 411 kts | 289° |
| 2026-05-04 20:36 | 37.18142 | 29.59045 | 26361 ft | 406 kts | 289° |
| 2026-05-04 20:36 | 37.18849 | 29.55664 | 25880 ft | 401 kts | 289° |
| 2026-05-04 20:36 | 37.19549 | 29.52304 | 25399 ft | 396 kts | 289° |
| 2026-05-04 20:37 | 37.20235 | 29.49000 | 24940 ft | 392 kts | 289° |
| 2026-05-04 20:37 | 37.20913 | 29.45731 | 24478 ft | 387 kts | 288° |
| 2026-05-04 20:37 | 37.21589 | 29.42462 | 24013 ft | 383 kts | 288° |
| 2026-05-04 20:37 | 37.22247 | 29.39286 | 23569 ft | 378 kts | 289° |
| 2026-05-04 20:38 | 37.22912 | 29.36083 | 23117 ft | 374 kts | 288° |
| 2026-05-04 20:38 | 37.23558 | 29.32971 | 22665 ft | 371 kts | 288° |
| 2026-05-04 20:38 | 37.24204 | 29.29847 | 22212 ft | 368 kts | 288° |
| 2026-05-04 20:38 | 37.24843 | 29.26759 | 21760 ft | 365 kts | 288° |
| 2026-05-04 20:39 | 37.25477 | 29.23695 | 21305 ft | 362 kts | 288° |
| 2026-05-04 20:39 | 37.26105 | 29.20655 | 20822 ft | 359 kts | 288° |
| 2026-05-04 20:39 | 37.26722 | 29.17655 | 20350 ft | 356 kts | 288° |
| 2026-05-04 20:39 | 37.27335 | 29.14675 | 19885 ft | 353 kts | 288° |
| 2026-05-04 20:40 | 37.27945 | 29.11705 | 19424 ft | 350 kts | 288° |
| 2026-05-04 20:40 | 37.28541 | 29.08786 | 18979 ft | 345 kts | 288° |
| 2026-05-04 20:40 | 37.29132 | 29.05886 | 18528 ft | 342 kts | 288° |
| 2026-05-04 20:40 | 37.29716 | 29.03029 | 18081 ft | 339 kts | 288° |
| 2026-05-04 20:41 | 37.30298 | 29.00173 | 17641 ft | 337 kts | 288° |
| 2026-05-04 20:41 | 37.30875 | 28.97333 | 17189 ft | 335 kts | 289° |
| 2026-05-04 20:41 | 37.31442 | 28.94538 | 16747 ft | 331 kts | 289° |
| 2026-05-04 20:41 | 37.32010 | 28.91734 | 16300 ft | 329 kts | 289° |
| 2026-05-04 20:42 | 37.32566 | 28.88986 | 15872 ft | 326 kts | 289° |
| 2026-05-04 20:42 | 37.33121 | 28.86248 | 15544 ft | 321 kts | 289° |
| 2026-05-04 20:42 | 37.33664 | 28.83551 | 15422 ft | 315 kts | 289° |
| 2026-05-04 20:42 | 37.34194 | 28.80924 | 15291 ft | 313 kts | 289° |
| 2026-05-04 20:43 | 37.34728 | 28.78280 | 15153 ft | 312 kts | 290° |
| 2026-05-04 20:43 | 37.35254 | 28.75656 | 14991 ft | 302 kts | 288° |
| 2026-05-04 20:43 | 37.35400 | 28.73086 | 14950 ft | 290 kts | 269° |
| 2026-05-04 20:43 | 37.34850 | 28.70664 | 14648 ft | 295 kts | 254° |
| 2026-05-04 20:44 | 37.34014 | 28.68339 | 14354 ft | 292 kts | 253° |
| 2026-05-04 20:44 | 37.33162 | 28.66039 | 14057 ft | 287 kts | 253° |
| 2026-05-04 20:44 | 37.32333 | 28.63787 | 13707 ft | 286 kts | 253° |
| 2026-05-04 20:44 | 37.31502 | 28.61509 | 13333 ft | 284 kts | 253° |
| 2026-05-04 20:45 | 37.30691 | 28.59266 | 12979 ft | 282 kts | 253° |
| 2026-05-04 20:45 | 37.29893 | 28.57054 | 12613 ft | 281 kts | 253° |
| 2026-05-04 20:45 | 37.29081 | 28.54804 | 12254 ft | 281 kts | 253° |
| 2026-05-04 20:45 | 37.28288 | 28.52608 | 12006 ft | 277 kts | 253° |
| 2026-05-04 20:46 | 37.27486 | 28.50388 | 11938 ft | 279 kts | 253° |
| 2026-05-04 20:46 | 37.26684 | 28.48170 | 11596 ft | 281 kts | 252° |
| 2026-05-04 20:46 | 37.25879 | 28.45945 | 11232 ft | 280 kts | 252° |
| 2026-05-04 20:46 | 37.25066 | 28.43710 | 10890 ft | 278 kts | 252° |
| 2026-05-04 20:47 | 37.24278 | 28.41539 | 10561 ft | 276 kts | 252° |
| 2026-05-04 20:47 | 37.23487 | 28.39361 | 10250 ft | 274 kts | 252° |
| 2026-05-04 20:47 | 37.22698 | 28.37202 | 9943 ft | 272 kts | 252° |
| 2026-05-04 20:47 | 37.21919 | 28.35061 | 9640 ft | 270 kts | 252° |
| 2026-05-04 20:48 | 37.21147 | 28.32921 | 9348 ft | 266 kts | 250° |
| 2026-05-04 20:48 | 37.20394 | 28.30825 | 9078 ft | 261 kts | 248° |
| 2026-05-04 20:48 | 37.19650 | 28.28767 | 8808 ft | 257 kts | 246° |
| 2026-05-04 20:48 | 37.18912 | 28.26738 | 8559 ft | 253 kts | 245° |
| 2026-05-04 20:49 | 37.18189 | 28.24772 | 8300 ft | 250 kts | 245° |
| 2026-05-04 20:49 | 37.17460 | 28.22803 | 8018 ft | 247 kts | 245° |
| 2026-05-04 20:49 | 37.16742 | 28.20855 | 7734 ft | 245 kts | 245° |
| 2026-05-04 20:49 | 37.16029 | 28.18917 | 7451 ft | 243 kts | 245° |
| 2026-05-04 20:50 | 37.15328 | 28.17003 | 7166 ft | 241 kts | 245° |
| 2026-05-04 20:50 | 37.14640 | 28.15131 | 7025 ft | 231 kts | 245° |
| 2026-05-04 20:50 | 37.14097 | 28.13317 | 6993 ft | 216 kts | 264° |
| 2026-05-04 20:50 | 37.14228 | 28.11463 | 7014 ft | 215 kts | 287° |
| 2026-05-04 20:51 | 37.14679 | 28.09672 | 6942 ft | 217 kts | 288° |
| 2026-05-04 20:51 | 37.15137 | 28.07899 | 6642 ft | 216 kts | 288° |
| 2026-05-04 20:51 | 37.15588 | 28.06112 | 6368 ft | 214 kts | 288° |
| 2026-05-04 20:51 | 37.16030 | 28.04329 | 6105 ft | 211 kts | 287° |
| 2026-05-04 20:52 | 37.16452 | 28.02592 | 5864 ft | 209 kts | 288° |
| 2026-05-04 20:52 | 37.16867 | 28.00868 | 5650 ft | 205 kts | 289° |
| 2026-05-04 20:52 | 37.17269 | 27.99178 | 5504 ft | 195 kts | 290° |
| 2026-05-04 20:52 | 37.17647 | 27.97589 | 5280 ft | 187 kts | 292° |
| 2026-05-04 20:53 | 37.18023 | 27.96057 | 5057 ft | 182 kts | 292° |
| 2026-05-04 20:53 | 37.18416 | 27.94548 | 4927 ft | 184 kts | 292° |
| 2026-05-04 20:53 | 37.18815 | 27.92995 | 4958 ft | 188 kts | 291° |
| 2026-05-04 20:53 | 37.19202 | 27.91436 | 4809 ft | 184 kts | 289° |
| 2026-05-04 20:54 | 37.19556 | 27.89954 | 4548 ft | 172 kts | 290° |
| 2026-05-04 20:54 | 37.19887 | 27.88546 | 4241 ft | 164 kts | 290° |
| 2026-05-04 20:54 | 37.20203 | 27.87204 | 3959 ft | 157 kts | 290° |
| 2026-05-04 20:54 | 37.20501 | 27.85935 | 3716 ft | 148 kts | 291° |
| 2026-05-04 20:55 | 37.20785 | 27.84723 | 3488 ft | 142 kts | 291° |
| 2026-05-04 20:55 | 37.21066 | 27.83536 | 3257 ft | 140 kts | 291° |
| 2026-05-04 20:55 | 37.21343 | 27.82370 | 3028 ft | 140 kts | 290° |
| 2026-05-04 20:55 | 37.21617 | 27.81207 | 2795 ft | 139 kts | 290° |
| 2026-05-04 20:56 | 37.21892 | 27.80044 | 2552 ft | 139 kts | 290° |
| 2026-05-04 20:56 | 37.22168 | 27.78884 | 2313 ft | 138 kts | 289° |
| 2026-05-04 20:56 | 37.22441 | 27.77733 | 2073 ft | 138 kts | 290° |
| 2026-05-04 20:56 | 37.22713 | 27.76573 | 1853 ft | 137 kts | 290° |
| 2026-05-04 20:57 | 37.22980 | 27.75436 | 1602 ft | 137 kts | 290° |
| 2026-05-04 20:57 | 37.23251 | 27.74295 | 1350 ft | 136 kts | 290° |
| 2026-05-04 20:57 | 37.23521 | 27.73160 | 1107 ft | 135 kts | 290° |
| 2026-05-04 20:57 | 37.23801 | 27.72036 | 873 ft | 135 kts | 290° |
| 2026-05-04 20:58 | 37.24072 | 27.70915 | 650 ft | 135 kts | 289° |
| 2026-05-04 20:58 | 37.24334 | 27.69783 | 404 ft | 134 kts | 289° |
| 2026-05-04 20:58 | 37.24600 | 27.68681 | 166 ft | 132 kts | 288° |
| 2026-05-04 20:58 | 37.24863 | 27.67577 | 23 ft | 125 kts | 288° |
| 2026-05-04 20:59 | 37.25066 | 27.66719 | 19 ft | 78 kts | 287° |
| 2026-05-04 20:59 | 37.25176 | 27.66260 | 16 ft | 39 kts | 288° |
| 2026-05-04 20:59 | 37.25246 | 27.65965 | 14 ft | 31 kts | 284° |
| 2026-05-04 20:59 | 37.25245 | 27.65749 | 13 ft | 23 kts | 257° |
| 2026-05-04 21:00 | 37.25223 | 27.65637 | 13 ft | 10 kts | 257° |
| 2026-05-04 21:00 | 37.25209 | 27.65564 | 13 ft | 3 kts | 245° |
| 2026-05-04 21:00 | 37.25186 | 27.65553 | 13 ft | 4 kts | 172° |
| 2026-05-04 21:00 | 37.25159 | 27.65592 | 13 ft | 7 kts | 110° |
| 2026-05-04 21:01 | 37.25141 | 27.65663 | 13 ft | 9 kts | 107° |
| 2026-05-04 21:01 | 37.25121 | 27.65745 | 13 ft | 10 kts | 107° |
| 2026-05-04 21:01 | 37.25100 | 27.65838 | 13 ft | 11 kts | 107° |
| 2026-05-04 21:01 | 37.25077 | 27.65936 | 14 ft | 11 kts | 107° |
| 2026-05-04 21:02 | 37.25053 | 27.66037 | 15 ft | 12 kts | 106° |
| 2026-05-04 21:02 | 37.25028 | 27.66143 | 15 ft | 12 kts | 107° |
| 2026-05-04 21:02 | 37.25002 | 27.66250 | 16 ft | 12 kts | 107° |
| 2026-05-04 21:02 | 37.24976 | 27.66359 | 17 ft | 13 kts | 107° |
| 2026-05-04 21:03 | 37.24951 | 27.66468 | 18 ft | 13 kts | 106° |
| 2026-05-04 21:03 | 37.24925 | 27.66577 | 19 ft | 12 kts | 108° |
| 2026-05-04 21:03 | 37.24900 | 27.66681 | 20 ft | 12 kts | 105° |
| 2026-05-04 21:03 | 37.24876 | 27.66778 | 21 ft | 11 kts | 108° |
| 2026-05-04 21:04 | 37.24855 | 27.66863 | 21 ft | 8 kts | 113° |
| 2026-05-04 21:04 | 37.24815 | 27.66916 | 22 ft | 8 kts | 142° |
| 2026-05-04 21:04 | 37.24764 | 27.66962 | 22 ft | 9 kts | 154° |
| 2026-05-04 21:04 | 37.24702 | 27.66967 | 23 ft | 8 kts | 195° |
| 2026-05-04 21:05 | 37.24657 | 27.66987 | 23 ft | 7 kts | 111° |
| 2026-05-04 21:05 | 37.24641 | 27.67049 | 23 ft | 7 kts | 107° |
| 2026-05-04 21:05 | 37.24627 | 27.67110 | 23 ft | 7 kts | 107° |
| 2026-05-04 21:05 | 37.24614 | 27.67168 | 24 ft | 6 kts | 107° |
| 2026-05-04 21:06 | 37.24600 | 27.67225 | 24 ft | 6 kts | 107° |
| 2026-05-04 21:06 | 37.24587 | 27.67280 | 24 ft | 6 kts | 107° |
| 2026-05-04 21:06 | 37.24575 | 27.67334 | 24 ft | 6 kts | 106° |
| 2026-05-04 21:06 | 37.24562 | 27.67387 | 24 ft | 6 kts | 108° |
| 2026-05-04 21:07 | 37.24549 | 27.67438 | 24 ft | 6 kts | 107° |
| 2026-05-04 21:07 | 37.24537 | 27.67488 | 24 ft | 5 kts | 107° |
| 2026-05-04 21:07 | 37.24526 | 27.67531 | 25 ft | 0 kts | 122° |
| 2026-05-04 21:07 | 37.24521 | 27.67534 | 25 ft | 1 kts | 152° |
| 2026-05-04 21:08 | 37.24503 | 27.67536 | 25 ft | 3 kts | 186° |
| 2026-05-04 21:08 | 37.24483 | 27.67529 | 25 ft | 2 kts | 196° |
| 2026-05-04 21:08 | 37.24467 | 27.67523 | 25 ft | 2 kts | 197° |
| 2026-05-04 21:08 | 37.24455 | 27.67519 | 25 ft | 1 kts | 197° |
| 2026-05-04 21:09 | 37.24445 | 27.67515 | 25 ft | 1 kts | 197° |
| 2026-05-04 21:09 | 37.24441 | 27.67514 | 25 ft | 0 kts | 197° |
| 2026-05-04 21:09 | 37.24440 | 27.67514 | 25 ft | 0 kts | 197° |